sensor_id;sensor_type;location;lat;lon;timestamp;P1;durP1;ratioP1;P2;durP2;ratioP2
71753;SDS011;59593;51.716;7.016;2022-09-02T00:00:04;2.88;;;1.00;;
71753;SDS011;59593;51.716;7.016;2022-09-02T00:02:32;1.67;;;1.00;;
71753;SDS011;59593;51.716;7.016;2022-09-02T00:04:58;4.45;;;1.10;;
71753;SDS011;59593;51.716;7.016;2022-09-02T00:07:23;3.42;;;0.90;;
71753;SDS011;59593;51.716;7.016;2022-09-02T00:09:49;1.10;;;1.00;;
71753;SDS011;59593;51.716;7.016;2022-09-02T00:12:14;3.50;;;0.90;;
71753;SDS011;59593;51.716;7.016;2022-09-02T00:14:43;2.42;;;0.90;;
71753;SDS011;59593;51.716;7.016;2022-09-02T00:17:08;5.10;;;1.10;;
71753;SDS011;59593;51.716;7.016;2022-09-02T00:19:34;3.50;;;1.05;;
71753;SDS011;59593;51.716;7.016;2022-09-02T00:22:01;2.55;;;0.95;;
71753;SDS011;59593;51.716;7.016;2022-09-02T00:24:27;1.90;;;0.90;;
71753;SDS011;59593;51.716;7.016;2022-09-02T00:26:53;3.13;;;1.00;;
71753;SDS011;59593;51.716;7.016;2022-09-02T00:29:19;1.95;;;0.90;;
71753;SDS011;59593;51.716;7.016;2022-09-02T00:31:45;2.80;;;1.10;;
71753;SDS011;59593;51.716;7.016;2022-09-02T00:34:12;4.00;;;1.20;;
71753;SDS011;59593;51.716;7.016;2022-09-02T00:36:38;1.88;;;0.95;;
71753;SDS011;59593;51.716;7.016;2022-09-02T00:39:05;2.22;;;1.00;;
71753;SDS011;59593;51.716;7.016;2022-09-02T00:41:33;2.88;;;0.95;;
71753;SDS011;59593;51.716;7.016;2022-09-02T00:44:00;2.25;;;1.00;;
71753;SDS011;59593;51.716;7.016;2022-09-02T00:46:29;3.17;;;0.90;;
71753;SDS011;59593;51.716;7.016;2022-09-02T00:48:58;1.83;;;1.00;;
71753;SDS011;59593;51.716;7.016;2022-09-02T00:51:29;2.80;;;1.08;;
71753;SDS011;59593;51.716;7.016;2022-09-02T00:54:00;1.75;;;0.95;;
71753;SDS011;59593;51.716;7.016;2022-09-02T00:56:28;2.95;;;0.93;;
71753;SDS011;59593;51.716;7.016;2022-09-02T00:58:55;2.15;;;0.95;;
71753;SDS011;59593;51.716;7.016;2022-09-02T01:01:23;3.33;;;0.88;;
71753;SDS011;59593;51.716;7.016;2022-09-02T01:03:49;7.95;;;1.20;;
71753;SDS011;59593;51.716;7.016;2022-09-02T01:06:16;2.50;;;0.90;;
71753;SDS011;59593;51.716;7.016;2022-09-02T01:08:50;5.93;;;1.02;;
71753;SDS011;59593;51.716;7.016;2022-09-02T01:11:21;1.88;;;1.05;;
71753;SDS011;59593;51.716;7.016;2022-09-02T01:13:47;2.33;;;0.90;;
71753;SDS011;59593;51.716;7.016;2022-09-02T01:16:18;1.70;;;0.85;;
71753;SDS011;59593;51.716;7.016;2022-09-02T01:18:52;2.97;;;0.90;;
71753;SDS011;59593;51.716;7.016;2022-09-02T01:21:21;2.58;;;0.90;;
71753;SDS011;59593;51.716;7.016;2022-09-02T01:23:48;2.28;;;0.80;;
71753;SDS011;59593;51.716;7.016;2022-09-02T01:26:14;1.88;;;0.90;;
71753;SDS011;59593;51.716;7.016;2022-09-02T01:28:40;1.08;;;0.82;;
71753;SDS011;59593;51.716;7.016;2022-09-02T01:31:06;1.80;;;1.15;;
71753;SDS011;59593;51.716;7.016;2022-09-02T01:33:32;2.20;;;1.00;;
71753;SDS011;59593;51.716;7.016;2022-09-02T01:35:58;4.85;;;1.00;;
71753;SDS011;59593;51.716;7.016;2022-09-02T01:38:25;2.13;;;1.08;;
71753;SDS011;59593;51.716;7.016;2022-09-02T01:40:51;2.20;;;0.90;;
71753;SDS011;59593;51.716;7.016;2022-09-02T01:43:19;2.85;;;0.98;;
71753;SDS011;59593;51.716;7.016;2022-09-02T01:45:48;3.08;;;0.85;;
71753;SDS011;59593;51.716;7.016;2022-09-02T01:48:15;1.27;;;0.88;;
71753;SDS011;59593;51.716;7.016;2022-09-02T01:50:42;2.45;;;1.00;;
71753;SDS011;59593;51.716;7.016;2022-09-02T01:53:10;2.97;;;0.88;;
71753;SDS011;59593;51.716;7.016;2022-09-02T01:55:36;2.45;;;0.98;;
71753;SDS011;59593;51.716;7.016;2022-09-02T01:58:05;1.98;;;0.80;;
71753;SDS011;59593;51.716;7.016;2022-09-02T02:00:30;1.35;;;0.95;;
71753;SDS011;59593;51.716;7.016;2022-09-02T02:02:56;1.38;;;0.90;;
71753;SDS011;59593;51.716;7.016;2022-09-02T02:05:22;2.00;;;1.00;;
71753;SDS011;59593;51.716;7.016;2022-09-02T02:07:47;2.05;;;0.90;;
71753;SDS011;59593;51.716;7.016;2022-09-02T02:10:14;3.03;;;1.10;;
71753;SDS011;59593;51.716;7.016;2022-09-02T02:12:40;4.10;;;1.10;;
71753;SDS011;59593;51.716;7.016;2022-09-02T02:15:08;2.42;;;0.90;;
71753;SDS011;59593;51.716;7.016;2022-09-02T02:17:39;4.07;;;1.33;;
71753;SDS011;59593;51.716;7.016;2022-09-02T02:20:05;3.05;;;1.33;;
71753;SDS011;59593;51.716;7.016;2022-09-02T02:22:32;2.10;;;1.15;;
71753;SDS011;59593;51.716;7.016;2022-09-02T02:24:58;4.55;;;0.70;;
71753;SDS011;59593;51.716;7.016;2022-09-02T02:27:24;1.13;;;0.90;;
71753;SDS011;59593;51.716;7.016;2022-09-02T02:29:50;3.60;;;1.02;;
71753;SDS011;59593;51.716;7.016;2022-09-02T02:32:16;3.65;;;0.82;;
71753;SDS011;59593;51.716;7.016;2022-09-02T02:34:45;1.30;;;0.80;;
71753;SDS011;59593;51.716;7.016;2022-09-02T02:37:11;0.80;;;0.80;;
71753;SDS011;59593;51.716;7.016;2022-09-02T02:39:40;1.92;;;0.90;;
71753;SDS011;59593;51.716;7.016;2022-09-02T02:42:07;1.83;;;0.80;;
71753;SDS011;59593;51.716;7.016;2022-09-02T02:44:33;2.60;;;1.02;;
71753;SDS011;59593;51.716;7.016;2022-09-02T02:46:59;4.25;;;1.08;;
71753;SDS011;59593;51.716;7.016;2022-09-02T02:49:25;1.90;;;1.02;;
71753;SDS011;59593;51.716;7.016;2022-09-02T02:51:51;3.88;;;0.90;;
71753;SDS011;59593;51.716;7.016;2022-09-02T02:54:18;1.73;;;1.00;;
71753;SDS011;59593;51.716;7.016;2022-09-02T02:56:44;2.28;;;0.93;;
71753;SDS011;59593;51.716;7.016;2022-09-02T02:59:10;2.03;;;1.15;;
71753;SDS011;59593;51.716;7.016;2022-09-02T03:01:36;2.42;;;1.00;;
71753;SDS011;59593;51.716;7.016;2022-09-02T03:04:02;2.88;;;1.10;;
71753;SDS011;59593;51.716;7.016;2022-09-02T03:06:29;1.73;;;1.00;;
71753;SDS011;59593;51.716;7.016;2022-09-02T03:08:55;1.70;;;1.10;;
71753;SDS011;59593;51.716;7.016;2022-09-02T03:11:22;4.50;;;1.08;;
71753;SDS011;59593;51.716;7.016;2022-09-02T03:13:48;1.35;;;0.90;;
71753;SDS011;59593;51.716;7.016;2022-09-02T03:16:15;5.88;;;1.00;;
71753;SDS011;59593;51.716;7.016;2022-09-02T03:18:40;1.40;;;0.85;;
71753;SDS011;59593;51.716;7.016;2022-09-02T03:21:06;3.53;;;1.10;;
71753;SDS011;59593;51.716;7.016;2022-09-02T03:23:33;2.35;;;1.08;;
71753;SDS011;59593;51.716;7.016;2022-09-02T03:25:59;3.15;;;1.02;;
71753;SDS011;59593;51.716;7.016;2022-09-02T03:28:25;2.42;;;1.10;;
71753;SDS011;59593;51.716;7.016;2022-09-02T03:30:50;2.53;;;0.98;;
71753;SDS011;59593;51.716;7.016;2022-09-02T03:33:16;1.70;;;1.10;;
71753;SDS011;59593;51.716;7.016;2022-09-02T03:35:42;1.10;;;0.77;;
71753;SDS011;59593;51.716;7.016;2022-09-02T03:38:09;1.52;;;0.90;;
71753;SDS011;59593;51.716;7.016;2022-09-02T03:40:36;3.25;;;0.98;;
71753;SDS011;59593;51.716;7.016;2022-09-02T03:43:04;3.85;;;1.00;;
71753;SDS011;59593;51.716;7.016;2022-09-02T03:45:29;4.63;;;1.10;;
71753;SDS011;59593;51.716;7.016;2022-09-02T03:47:55;3.95;;;1.27;;
71753;SDS011;59593;51.716;7.016;2022-09-02T03:50:24;2.58;;;0.98;;
71753;SDS011;59593;51.716;7.016;2022-09-02T03:52:54;4.15;;;0.88;;
71753;SDS011;59593;51.716;7.016;2022-09-02T03:55:20;2.47;;;0.90;;
71753;SDS011;59593;51.716;7.016;2022-09-02T03:57:47;1.75;;;1.00;;
71753;SDS011;59593;51.716;7.016;2022-09-02T04:00:13;2.35;;;1.17;;
71753;SDS011;59593;51.716;7.016;2022-09-02T09:34:45;4.35;;;1.70;;
71753;SDS011;59593;51.716;7.016;2022-09-02T09:39:53;6.68;;;1.60;;
71753;SDS011;59593;51.716;7.016;2022-09-02T09:42:29;7.32;;;1.98;;
71753;SDS011;59593;51.716;7.016;2022-09-02T09:44:57;4.38;;;1.75;;
71753;SDS011;59593;51.716;7.016;2022-09-02T09:47:23;4.47;;;1.88;;
71753;SDS011;59593;51.716;7.016;2022-09-02T09:50:32;6.35;;;1.88;;
71753;SDS011;59593;51.716;7.016;2022-09-02T09:52:42;4.38;;;1.77;;
71753;SDS011;59593;51.716;7.016;2022-09-02T09:55:18;6.75;;;1.65;;
71753;SDS011;59593;51.716;7.016;2022-09-02T09:57:46;4.55;;;1.77;;
71753;SDS011;59593;51.716;7.016;2022-09-02T10:00:29;2.60;;;1.70;;
71753;SDS011;59593;51.716;7.016;2022-09-02T10:03:00;4.00;;;2.03;;
71753;SDS011;59593;51.716;7.016;2022-09-02T10:05:33;3.30;;;1.90;;
71753;SDS011;59593;51.716;7.016;2022-09-02T10:08:05;5.63;;;1.65;;
71753;SDS011;59593;51.716;7.016;2022-09-02T10:10:54;2.40;;;1.60;;
71753;SDS011;59593;51.716;7.016;2022-09-02T10:13:22;4.57;;;1.80;;
71753;SDS011;59593;51.716;7.016;2022-09-02T10:15:53;4.80;;;1.98;;
71753;SDS011;59593;51.716;7.016;2022-09-02T10:18:48;8.70;;;1.88;;
71753;SDS011;59593;51.716;7.016;2022-09-02T10:21:28;5.68;;;1.90;;
71753;SDS011;59593;51.716;7.016;2022-09-02T10:29:46;5.60;;;1.90;;
71753;SDS011;59593;51.716;7.016;2022-09-02T10:35:07;2.35;;;1.60;;
71753;SDS011;59593;51.716;7.016;2022-09-02T10:40:52;4.50;;;1.70;;
71753;SDS011;59593;51.716;7.016;2022-09-02T10:46:07;3.40;;;1.60;;
71753;SDS011;59593;51.716;7.016;2022-09-02T10:56:40;5.47;;;2.10;;
71753;SDS011;59593;51.716;7.016;2022-09-02T10:59:29;2.95;;;1.42;;
71753;SDS011;59593;51.716;7.016;2022-09-02T11:02:02;4.60;;;1.52;;
71753;SDS011;59593;51.716;7.016;2022-09-02T11:07:46;6.32;;;1.60;;
71753;SDS011;59593;51.716;7.016;2022-09-02T11:10:36;5.88;;;1.80;;
71753;SDS011;59593;51.716;7.016;2022-09-02T11:13:10;2.85;;;1.58;;
71753;SDS011;59593;51.716;7.016;2022-09-02T11:15:47;8.02;;;1.70;;
71753;SDS011;59593;51.716;7.016;2022-09-02T11:29:20;5.80;;;1.80;;
71753;SDS011;59593;51.716;7.016;2022-09-02T11:32:04;4.10;;;2.05;;
71753;SDS011;59593;51.716;7.016;2022-09-02T11:34:46;3.63;;;1.95;;
71753;SDS011;59593;51.716;7.016;2022-09-02T11:40:06;5.50;;;1.60;;
71753;SDS011;59593;51.716;7.016;2022-09-02T11:42:48;8.23;;;2.00;;
71753;SDS011;59593;51.716;7.016;2022-09-02T11:48:25;4.75;;;1.80;;
71753;SDS011;59593;51.716;7.016;2022-09-02T11:53:48;3.22;;;2.28;;
71753;SDS011;59593;51.716;7.016;2022-09-02T11:56:15;4.45;;;1.73;;
71753;SDS011;59593;51.716;7.016;2022-09-02T11:58:45;5.07;;;1.90;;
71753;SDS011;59593;51.716;7.016;2022-09-02T12:03:40;7.65;;;1.90;;
71753;SDS011;59593;51.716;7.016;2022-09-02T12:06:15;8.13;;;2.20;;
71753;SDS011;59593;51.716;7.016;2022-09-02T12:11:55;4.53;;;1.90;;
71753;SDS011;59593;51.716;7.016;2022-09-02T12:19:27;4.93;;;1.88;;
71753;SDS011;59593;51.716;7.016;2022-09-02T12:24:50;3.00;;;1.80;;
71753;SDS011;59593;51.716;7.016;2022-09-02T12:27:22;4.35;;;1.60;;
71753;SDS011;59593;51.716;7.016;2022-09-02T12:29:50;3.67;;;1.83;;
71753;SDS011;59593;51.716;7.016;2022-09-02T12:35:10;3.35;;;1.90;;
71753;SDS011;59593;51.716;7.016;2022-09-02T12:37:57;3.95;;;1.65;;
71753;SDS011;59593;51.716;7.016;2022-09-02T12:46:04;3.78;;;1.70;;
71753;SDS011;59593;51.716;7.016;2022-09-02T12:48:40;3.00;;;1.70;;
71753;SDS011;59593;51.716;7.016;2022-09-02T12:51:09;4.88;;;1.60;;
71753;SDS011;59593;51.716;7.016;2022-09-02T12:53:56;3.03;;;1.60;;
71753;SDS011;59593;51.716;7.016;2022-09-02T12:56:21;4.47;;;1.60;;
71753;SDS011;59593;51.716;7.016;2022-09-02T12:58:52;4.30;;;1.60;;
71753;SDS011;59593;51.716;7.016;2022-09-02T13:01:35;2.03;;;1.60;;
71753;SDS011;59593;51.716;7.016;2022-09-02T13:04:15;1.65;;;1.48;;
71753;SDS011;59593;51.716;7.016;2022-09-02T13:32:11;1.90;;;1.70;;
71753;SDS011;59593;51.716;7.016;2022-09-02T13:34:43;3.65;;;1.70;;
71753;SDS011;59593;51.716;7.016;2022-09-02T13:40:16;3.03;;;1.63;;
71753;SDS011;59593;51.716;7.016;2022-09-02T13:42:46;5.57;;;1.70;;
71753;SDS011;59593;51.716;7.016;2022-09-02T13:45:20;3.08;;;1.70;;
71753;SDS011;59593;51.716;7.016;2022-09-02T13:47:52;2.10;;;1.40;;
71753;SDS011;59593;51.716;7.016;2022-09-02T13:50:26;5.07;;;1.58;;
71753;SDS011;59593;51.716;7.016;2022-09-02T13:52:57;3.22;;;1.63;;
71753;SDS011;59593;51.716;7.016;2022-09-02T13:55:26;2.83;;;1.50;;
71753;SDS011;59593;51.716;7.016;2022-09-02T13:58:00;4.45;;;1.60;;
71753;SDS011;59593;51.716;7.016;2022-09-02T14:00:37;4.28;;;1.65;;
71753;SDS011;59593;51.716;7.016;2022-09-02T14:03:06;3.08;;;1.70;;
71753;SDS011;59593;51.716;7.016;2022-09-02T14:05:35;5.07;;;1.77;;
71753;SDS011;59593;51.716;7.016;2022-09-02T14:08:05;3.13;;;1.48;;
71753;SDS011;59593;51.716;7.016;2022-09-02T14:10:35;2.67;;;1.40;;
71753;SDS011;59593;51.716;7.016;2022-09-02T14:13:05;4.88;;;1.70;;
71753;SDS011;59593;51.716;7.016;2022-09-02T14:15:32;3.40;;;1.30;;
71753;SDS011;59593;51.716;7.016;2022-09-02T14:18:31;2.05;;;1.45;;
71753;SDS011;59593;51.716;7.016;2022-09-02T14:21:00;2.65;;;1.40;;
71753;SDS011;59593;51.716;7.016;2022-09-02T14:23:28;4.13;;;1.55;;
71753;SDS011;59593;51.716;7.016;2022-09-02T14:26:00;2.15;;;1.40;;
71753;SDS011;59593;51.716;7.016;2022-09-02T14:28:28;1.40;;;1.30;;
71753;SDS011;59593;51.716;7.016;2022-09-02T14:30:56;1.80;;;1.48;;
71753;SDS011;59593;51.716;7.016;2022-09-02T14:33:43;2.85;;;1.60;;
71753;SDS011;59593;51.716;7.016;2022-09-02T14:43:43;2.47;;;1.55;;
71753;SDS011;59593;51.716;7.016;2022-09-02T14:46:45;2.35;;;1.50;;
71753;SDS011;59593;51.716;7.016;2022-09-02T14:49:19;3.50;;;1.42;;
71753;SDS011;59593;51.716;7.016;2022-09-02T14:51:49;4.35;;;1.50;;
71753;SDS011;59593;51.716;7.016;2022-09-02T14:54:33;3.50;;;1.30;;
71753;SDS011;59593;51.716;7.016;2022-09-02T14:57:07;2.35;;;1.55;;
71753;SDS011;59593;51.716;7.016;2022-09-02T14:59:45;4.13;;;1.70;;
71753;SDS011;59593;51.716;7.016;2022-09-02T15:02:28;6.10;;;1.60;;
71753;SDS011;59593;51.716;7.016;2022-09-02T15:04:59;6.97;;;1.55;;
71753;SDS011;59593;51.716;7.016;2022-09-02T15:07:30;2.08;;;1.50;;
71753;SDS011;59593;51.716;7.016;2022-09-02T15:09:56;2.13;;;1.50;;
71753;SDS011;59593;51.716;7.016;2022-09-02T15:12:23;2.70;;;1.45;;
71753;SDS011;59593;51.716;7.016;2022-09-02T15:14:53;1.42;;;1.30;;
71753;SDS011;59593;51.716;7.016;2022-09-02T15:17:19;1.73;;;1.40;;
71753;SDS011;59593;51.716;7.016;2022-09-02T15:19:46;8.43;;;1.63;;
71753;SDS011;59593;51.716;7.016;2022-09-02T15:22:11;3.78;;;1.58;;
71753;SDS011;59593;51.716;7.016;2022-09-02T15:24:38;1.65;;;1.40;;
71753;SDS011;59593;51.716;7.016;2022-09-02T15:27:04;3.55;;;1.25;;
71753;SDS011;59593;51.716;7.016;2022-09-02T15:29:29;2.47;;;1.70;;
71753;SDS011;59593;51.716;7.016;2022-09-02T15:31:55;4.22;;;1.52;;
71753;SDS011;59593;51.716;7.016;2022-09-02T15:34:21;5.68;;;1.40;;
71753;SDS011;59593;51.716;7.016;2022-09-02T15:36:48;2.67;;;1.60;;
71753;SDS011;59593;51.716;7.016;2022-09-02T15:39:14;4.20;;;1.50;;
71753;SDS011;59593;51.716;7.016;2022-09-02T15:41:41;2.13;;;1.58;;
71753;SDS011;59593;51.716;7.016;2022-09-02T15:44:08;2.20;;;1.50;;
71753;SDS011;59593;51.716;7.016;2022-09-02T15:46:35;1.90;;;1.30;;
71753;SDS011;59593;51.716;7.016;2022-09-02T15:49:05;2.60;;;1.50;;
71753;SDS011;59593;51.716;7.016;2022-09-02T15:51:32;3.53;;;1.48;;
71753;SDS011;59593;51.716;7.016;2022-09-02T15:54:01;2.13;;;1.50;;
71753;SDS011;59593;51.716;7.016;2022-09-02T15:56:29;1.83;;;1.40;;
71753;SDS011;59593;51.716;7.016;2022-09-02T15:58:57;3.78;;;1.40;;
71753;SDS011;59593;51.716;7.016;2022-09-02T16:01:25;3.75;;;1.60;;
71753;SDS011;59593;51.716;7.016;2022-09-02T16:03:55;3.25;;;1.50;;
71753;SDS011;59593;51.716;7.016;2022-09-02T16:06:21;2.88;;;1.45;;
71753;SDS011;59593;51.716;7.016;2022-09-02T16:08:47;3.28;;;1.58;;
71753;SDS011;59593;51.716;7.016;2022-09-02T16:11:13;3.35;;;1.40;;
71753;SDS011;59593;51.716;7.016;2022-09-02T16:13:38;3.53;;;1.45;;
71753;SDS011;59593;51.716;7.016;2022-09-02T16:16:06;11.05;;;1.90;;
71753;SDS011;59593;51.716;7.016;2022-09-02T16:18:33;6.57;;;1.70;;
71753;SDS011;59593;51.716;7.016;2022-09-02T16:21:00;4.13;;;1.98;;
71753;SDS011;59593;51.716;7.016;2022-09-02T16:23:26;2.45;;;1.90;;
71753;SDS011;59593;51.716;7.016;2022-09-02T16:26:08;3.75;;;1.65;;
71753;SDS011;59593;51.716;7.016;2022-09-02T16:28:47;3.22;;;1.45;;
71753;SDS011;59593;51.716;7.016;2022-09-02T16:31:15;4.07;;;1.63;;
71753;SDS011;59593;51.716;7.016;2022-09-02T16:33:43;2.17;;;1.80;;
71753;SDS011;59593;51.716;7.016;2022-09-02T16:36:09;2.33;;;1.70;;
71753;SDS011;59593;51.716;7.016;2022-09-02T16:38:36;2.47;;;1.50;;
71753;SDS011;59593;51.716;7.016;2022-09-02T16:41:02;4.70;;;1.83;;
71753;SDS011;59593;51.716;7.016;2022-09-02T16:43:31;3.10;;;1.95;;
71753;SDS011;59593;51.716;7.016;2022-09-02T16:45:58;3.15;;;1.60;;
71753;SDS011;59593;51.716;7.016;2022-09-02T16:48:28;2.63;;;1.55;;
71753;SDS011;59593;51.716;7.016;2022-09-02T16:51:00;2.92;;;1.60;;
71753;SDS011;59593;51.716;7.016;2022-09-02T16:53:27;2.78;;;1.60;;
71753;SDS011;59593;51.716;7.016;2022-09-02T16:55:53;2.50;;;1.50;;
71753;SDS011;59593;51.716;7.016;2022-09-02T16:58:18;3.72;;;1.65;;
71753;SDS011;59593;51.716;7.016;2022-09-02T17:00:44;3.22;;;1.80;;
71753;SDS011;59593;51.716;7.016;2022-09-02T17:03:10;3.13;;;1.38;;
71753;SDS011;59593;51.716;7.016;2022-09-02T17:05:36;5.00;;;1.83;;
71753;SDS011;59593;51.716;7.016;2022-09-02T17:08:03;2.40;;;1.70;;
71753;SDS011;59593;51.716;7.016;2022-09-02T17:10:30;3.28;;;1.50;;
71753;SDS011;59593;51.716;7.016;2022-09-02T17:12:57;2.63;;;1.48;;
71753;SDS011;59593;51.716;7.016;2022-09-02T17:15:24;1.70;;;1.60;;
71753;SDS011;59593;51.716;7.016;2022-09-02T17:17:51;6.60;;;1.88;;
71753;SDS011;59593;51.716;7.016;2022-09-02T17:20:17;2.55;;;1.52;;
71753;SDS011;59593;51.716;7.016;2022-09-02T17:22:43;3.42;;;2.00;;
71753;SDS011;59593;51.716;7.016;2022-09-02T17:25:09;3.05;;;1.90;;
71753;SDS011;59593;51.716;7.016;2022-09-02T17:27:35;3.58;;;1.85;;
71753;SDS011;59593;51.716;7.016;2022-09-02T17:30:05;2.25;;;1.80;;
71753;SDS011;59593;51.716;7.016;2022-09-02T17:32:31;2.90;;;1.67;;
71753;SDS011;59593;51.716;7.016;2022-09-02T17:34:57;2.20;;;1.55;;
71753;SDS011;59593;51.716;7.016;2022-09-02T17:37:26;5.22;;;1.58;;
71753;SDS011;59593;51.716;7.016;2022-09-02T17:39:51;3.92;;;1.65;;
71753;SDS011;59593;51.716;7.016;2022-09-02T17:42:17;1.95;;;1.50;;
71753;SDS011;59593;51.716;7.016;2022-09-02T17:44:45;1.80;;;1.70;;
71753;SDS011;59593;51.716;7.016;2022-09-02T17:47:16;5.95;;;1.80;;
71753;SDS011;59593;51.716;7.016;2022-09-02T17:49:44;2.80;;;1.73;;
71753;SDS011;59593;51.716;7.016;2022-09-02T17:52:11;3.05;;;1.83;;
71753;SDS011;59593;51.716;7.016;2022-09-02T17:54:42;3.90;;;1.50;;
71753;SDS011;59593;51.716;7.016;2022-09-02T18:10:38;2.35;;;1.55;;
71753;SDS011;59593;51.716;7.016;2022-09-02T18:13:11;3.85;;;1.50;;
71753;SDS011;59593;51.716;7.016;2022-09-02T18:18:12;4.55;;;1.55;;
71753;SDS011;59593;51.716;7.016;2022-09-02T18:20:41;3.13;;;1.40;;
71753;SDS011;59593;51.716;7.016;2022-09-02T18:46:38;3.00;;;1.73;;
71753;SDS011;59593;51.716;7.016;2022-09-02T18:49:34;5.32;;;1.80;;
71753;SDS011;59593;51.716;7.016;2022-09-02T18:52:05;3.67;;;1.80;;
71753;SDS011;59593;51.716;7.016;2022-09-02T18:57:31;2.38;;;1.50;;
71753;SDS011;59593;51.716;7.016;2022-09-02T19:00:05;7.20;;;1.90;;
71753;SDS011;59593;51.716;7.016;2022-09-02T19:02:45;3.63;;;1.60;;
71753;SDS011;59593;51.716;7.016;2022-09-02T19:05:19;3.75;;;1.48;;
71753;SDS011;59593;51.716;7.016;2022-09-02T19:07:47;5.47;;;1.65;;
71753;SDS011;59593;51.716;7.016;2022-09-02T19:10:42;10.50;;;2.10;;
71753;SDS011;59593;51.716;7.016;2022-09-02T19:13:08;4.63;;;1.60;;
71753;SDS011;59593;51.716;7.016;2022-09-02T19:15:37;4.85;;;1.80;;
71753;SDS011;59593;51.716;7.016;2022-09-02T19:18:03;3.67;;;1.73;;
71753;SDS011;59593;51.716;7.016;2022-09-02T19:20:30;5.65;;;1.95;;
71753;SDS011;59593;51.716;7.016;2022-09-02T19:22:59;7.20;;;1.40;;
71753;SDS011;59593;51.716;7.016;2022-09-02T19:25:29;5.78;;;1.65;;
71753;SDS011;59593;51.716;7.016;2022-09-02T19:27:56;5.15;;;1.75;;
71753;SDS011;59593;51.716;7.016;2022-09-02T19:30:26;4.32;;;1.50;;
71753;SDS011;59593;51.716;7.016;2022-09-02T19:32:53;6.55;;;1.88;;
71753;SDS011;59593;51.716;7.016;2022-09-02T19:35:23;4.40;;;1.80;;
71753;SDS011;59593;51.716;7.016;2022-09-02T19:37:53;2.65;;;1.33;;
71753;SDS011;59593;51.716;7.016;2022-09-02T19:40:20;6.53;;;1.50;;
71753;SDS011;59593;51.716;7.016;2022-09-02T19:42:48;3.45;;;1.35;;
71753;SDS011;59593;51.716;7.016;2022-09-02T19:45:16;6.40;;;1.70;;
71753;SDS011;59593;51.716;7.016;2022-09-02T19:47:43;4.07;;;1.90;;
71753;SDS011;59593;51.716;7.016;2022-09-02T19:50:08;4.70;;;1.88;;
71753;SDS011;59593;51.716;7.016;2022-09-02T19:52:39;5.07;;;1.90;;
71753;SDS011;59593;51.716;7.016;2022-09-02T19:55:06;2.35;;;1.63;;
71753;SDS011;59593;51.716;7.016;2022-09-02T19:57:33;5.38;;;1.80;;
71753;SDS011;59593;51.716;7.016;2022-09-02T20:00:00;4.60;;;1.65;;
71753;SDS011;59593;51.716;7.016;2022-09-02T20:02:26;5.07;;;1.40;;
71753;SDS011;59593;51.716;7.016;2022-09-02T20:04:52;6.93;;;2.20;;
71753;SDS011;59593;51.716;7.016;2022-09-02T20:07:18;3.20;;;1.90;;
71753;SDS011;59593;51.716;7.016;2022-09-02T20:09:43;2.67;;;1.80;;
71753;SDS011;59593;51.716;7.016;2022-09-02T20:12:09;4.75;;;1.80;;
71753;SDS011;59593;51.716;7.016;2022-09-02T20:14:36;5.22;;;1.73;;
71753;SDS011;59593;51.716;7.016;2022-09-02T20:17:03;7.88;;;1.60;;
71753;SDS011;59593;51.716;7.016;2022-09-02T20:19:32;2.97;;;1.60;;
71753;SDS011;59593;51.716;7.016;2022-09-02T20:21:58;3.80;;;1.50;;
71753;SDS011;59593;51.716;7.016;2022-09-02T20:24:27;3.28;;;1.90;;
71753;SDS011;59593;51.716;7.016;2022-09-02T20:27:08;2.83;;;1.58;;
71753;SDS011;59593;51.716;7.016;2022-09-02T20:35:18;2.95;;;1.40;;
71753;SDS011;59593;51.716;7.016;2022-09-02T20:41:02;2.80;;;1.50;;
71753;SDS011;59593;51.716;7.016;2022-09-02T20:49:37;6.97;;;1.60;;
71753;SDS011;59593;51.716;7.016;2022-09-02T20:52:28;5.57;;;1.52;;
71753;SDS011;59593;51.716;7.016;2022-09-02T20:55:19;4.32;;;1.52;;
71753;SDS011;59593;51.716;7.016;2022-09-02T21:00:44;6.10;;;1.73;;
71753;SDS011;59593;51.716;7.016;2022-09-02T21:03:22;7.70;;;1.73;;
71753;SDS011;59593;51.716;7.016;2022-09-02T21:05:57;4.15;;;1.80;;
71753;SDS011;59593;51.716;7.016;2022-09-02T21:12:33;5.05;;;1.50;;
71753;SDS011;59593;51.716;7.016;2022-09-02T21:14:44;4.60;;;1.52;;
71753;SDS011;59593;51.716;7.016;2022-09-02T21:17:14;3.65;;;1.60;;
71753;SDS011;59593;51.716;7.016;2022-09-02T21:19:51;3.25;;;1.50;;
71753;SDS011;59593;51.716;7.016;2022-09-02T21:25:06;3.53;;;1.80;;
71753;SDS011;59593;51.716;7.016;2022-09-02T21:27:43;2.42;;;1.67;;
71753;SDS011;59593;51.716;7.016;2022-09-02T21:30:21;4.55;;;1.63;;
71753;SDS011;59593;51.716;7.016;2022-09-02T21:32:50;3.33;;;1.40;;
71753;SDS011;59593;51.716;7.016;2022-09-02T21:37:43;3.05;;;1.75;;
71753;SDS011;59593;51.716;7.016;2022-09-02T21:40:10;2.53;;;1.40;;
71753;SDS011;59593;51.716;7.016;2022-09-02T21:45:39;5.03;;;1.50;;
71753;SDS011;59593;51.716;7.016;2022-09-02T21:48:11;3.65;;;1.40;;
71753;SDS011;59593;51.716;7.016;2022-09-02T21:50:51;4.78;;;1.98;;
71753;SDS011;59593;51.716;7.016;2022-09-02T22:01:43;5.13;;;1.60;;
71753;SDS011;59593;51.716;7.016;2022-09-02T22:13:04;3.47;;;1.80;;
71753;SDS011;59593;51.716;7.016;2022-09-02T22:23:55;2.08;;;1.50;;
71753;SDS011;59593;51.716;7.016;2022-09-02T22:29:27;1.92;;;1.58;;
71753;SDS011;59593;51.716;7.016;2022-09-02T22:32:00;3.33;;;1.70;;
71753;SDS011;59593;51.716;7.016;2022-09-02T22:34:32;7.25;;;1.73;;
71753;SDS011;59593;51.716;7.016;2022-09-02T22:37:04;3.85;;;1.52;;
71753;SDS011;59593;51.716;7.016;2022-09-02T22:39:42;4.57;;;1.77;;
71753;SDS011;59593;51.716;7.016;2022-09-02T22:45:06;3.65;;;1.50;;
71753;SDS011;59593;51.716;7.016;2022-09-02T22:48:09;5.43;;;1.67;;
71753;SDS011;59593;51.716;7.016;2022-09-02T22:50:59;3.45;;;1.60;;
71753;SDS011;59593;51.716;7.016;2022-09-02T22:53:56;4.18;;;1.77;;
71753;SDS011;59593;51.716;7.016;2022-09-02T22:56:57;4.65;;;2.20;;
71753;SDS011;59593;51.716;7.016;2022-09-02T22:59:36;3.58;;;1.80;;
71753;SDS011;59593;51.716;7.016;2022-09-02T23:08:19;4.05;;;1.60;;
71753;SDS011;59593;51.716;7.016;2022-09-02T23:13:23;2.40;;;1.50;;
71753;SDS011;59593;51.716;7.016;2022-09-02T23:21:34;4.40;;;1.95;;
71753;SDS011;59593;51.716;7.016;2022-09-02T23:24:29;4.70;;;1.63;;
71753;SDS011;59593;51.716;7.016;2022-09-02T23:27:43;5.10;;;1.67;;
71753;SDS011;59593;51.716;7.016;2022-09-02T23:30:08;5.13;;;1.48;;
71753;SDS011;59593;51.716;7.016;2022-09-02T23:35:14;1.65;;;1.40;;
71753;SDS011;59593;51.716;7.016;2022-09-02T23:40:42;2.55;;;1.60;;
71753;SDS011;59593;51.716;7.016;2022-09-02T23:43:10;1.92;;;1.50;;
71753;SDS011;59593;51.716;7.016;2022-09-02T23:45:43;4.53;;;1.50;;
71753;SDS011;59593;51.716;7.016;2022-09-02T23:56:39;4.22;;;1.70;;
